sensor_id;sensor_type;location;lat;lon;timestamp;P1;durP1;ratioP1;P2;durP2;ratioP2
21862;SDS011;11096;51.338;12.524;2022-11-06T00:00:11;9.68;;;4.50;;
21862;SDS011;11096;51.338;12.524;2022-11-06T00:02:37;9.65;;;4.75;;
21862;SDS011;11096;51.338;12.524;2022-11-06T00:05:03;8.93;;;5.50;;
21862;SDS011;11096;51.338;12.524;2022-11-06T00:07:47;6.45;;;4.22;;
21862;SDS011;11096;51.338;12.524;2022-11-06T00:10:13;7.55;;;4.75;;
21862;SDS011;11096;51.338;12.524;2022-11-06T00:12:39;7.47;;;4.35;;
21862;SDS011;11096;51.338;12.524;2022-11-06T00:15:04;8.98;;;4.97;;
21862;SDS011;11096;51.338;12.524;2022-11-06T00:17:30;10.40;;;5.40;;
21862;SDS011;11096;51.338;12.524;2022-11-06T00:19:55;7.85;;;4.97;;
21862;SDS011;11096;51.338;12.524;2022-11-06T00:22:21;9.85;;;5.13;;
21862;SDS011;11096;51.338;12.524;2022-11-06T00:24:46;9.63;;;5.47;;
21862;SDS011;11096;51.338;12.524;2022-11-06T00:27:13;11.70;;;4.90;;
21862;SDS011;11096;51.338;12.524;2022-11-06T00:29:38;9.20;;;4.68;;
21862;SDS011;11096;51.338;12.524;2022-11-06T00:32:03;7.43;;;4.95;;
21862;SDS011;11096;51.338;12.524;2022-11-06T00:34:29;7.85;;;4.95;;
21862;SDS011;11096;51.338;12.524;2022-11-06T00:36:54;8.18;;;5.00;;
21862;SDS011;11096;51.338;12.524;2022-11-06T00:39:19;9.68;;;4.88;;
21862;SDS011;11096;51.338;12.524;2022-11-06T00:41:45;8.18;;;5.18;;
21862;SDS011;11096;51.338;12.524;2022-11-06T00:44:10;8.13;;;5.13;;
21862;SDS011;11096;51.338;12.524;2022-11-06T00:46:35;6.80;;;4.30;;
21862;SDS011;11096;51.338;12.524;2022-11-06T00:49:01;8.95;;;5.15;;
21862;SDS011;11096;51.338;12.524;2022-11-06T00:51:30;9.40;;;4.65;;
21862;SDS011;11096;51.338;12.524;2022-11-06T00:53:58;5.95;;;4.55;;
21862;SDS011;11096;51.338;12.524;2022-11-06T00:56:26;8.60;;;4.65;;
21862;SDS011;11096;51.338;12.524;2022-11-06T00:58:52;10.18;;;4.32;;
21862;SDS011;11096;51.338;12.524;2022-11-06T01:01:22;7.88;;;4.35;;
21862;SDS011;11096;51.338;12.524;2022-11-06T01:03:50;7.32;;;4.05;;
21862;SDS011;11096;51.338;12.524;2022-11-06T01:06:18;7.25;;;4.35;;
21862;SDS011;11096;51.338;12.524;2022-11-06T01:08:46;6.15;;;4.13;;
21862;SDS011;11096;51.338;12.524;2022-11-06T01:11:14;6.65;;;4.05;;
21862;SDS011;11096;51.338;12.524;2022-11-06T01:13:44;6.82;;;4.70;;
21862;SDS011;11096;51.338;12.524;2022-11-06T01:16:12;6.35;;;3.95;;
21862;SDS011;11096;51.338;12.524;2022-11-06T01:18:39;7.20;;;4.50;;
21862;SDS011;11096;51.338;12.524;2022-11-06T01:21:06;6.45;;;3.95;;
21862;SDS011;11096;51.338;12.524;2022-11-06T01:23:36;9.88;;;3.97;;
21862;SDS011;11096;51.338;12.524;2022-11-06T01:26:03;6.18;;;3.70;;
21862;SDS011;11096;51.338;12.524;2022-11-06T01:28:32;6.25;;;4.22;;
21862;SDS011;11096;51.338;12.524;2022-11-06T01:31:01;9.20;;;4.35;;
21862;SDS011;11096;51.338;12.524;2022-11-06T01:33:28;5.97;;;4.10;;
21862;SDS011;11096;51.338;12.524;2022-11-06T01:35:53;7.97;;;4.20;;
21862;SDS011;11096;51.338;12.524;2022-11-06T01:38:18;7.00;;;4.43;;
21862;SDS011;11096;51.338;12.524;2022-11-06T01:40:45;8.32;;;4.70;;
21862;SDS011;11096;51.338;12.524;2022-11-06T01:43:16;9.18;;;4.72;;
21862;SDS011;11096;51.338;12.524;2022-11-06T01:45:44;7.22;;;4.25;;
21862;SDS011;11096;51.338;12.524;2022-11-06T01:48:12;10.45;;;5.07;;
21862;SDS011;11096;51.338;12.524;2022-11-06T01:50:39;9.85;;;4.63;;
21862;SDS011;11096;51.338;12.524;2022-11-06T01:53:08;8.15;;;4.63;;
21862;SDS011;11096;51.338;12.524;2022-11-06T01:55:36;7.35;;;4.40;;
21862;SDS011;11096;51.338;12.524;2022-11-06T01:58:04;7.85;;;4.13;;
21862;SDS011;11096;51.338;12.524;2022-11-06T02:00:33;11.10;;;5.15;;
21862;SDS011;11096;51.338;12.524;2022-11-06T02:02:59;6.88;;;4.50;;
21862;SDS011;11096;51.338;12.524;2022-11-06T02:05:25;8.35;;;4.20;;
21862;SDS011;11096;51.338;12.524;2022-11-06T02:07:51;9.15;;;4.63;;
21862;SDS011;11096;51.338;12.524;2022-11-06T02:10:17;6.47;;;4.00;;
21862;SDS011;11096;51.338;12.524;2022-11-06T02:12:44;8.02;;;3.90;;
21862;SDS011;11096;51.338;12.524;2022-11-06T02:15:19;7.80;;;4.40;;
21862;SDS011;11096;51.338;12.524;2022-11-06T02:18:00;5.80;;;4.13;;
21862;SDS011;11096;51.338;12.524;2022-11-06T02:20:30;7.25;;;4.55;;
21862;SDS011;11096;51.338;12.524;2022-11-06T02:26:06;5.75;;;3.70;;
21862;SDS011;11096;51.338;12.524;2022-11-06T02:28:57;7.45;;;4.05;;
21862;SDS011;11096;51.338;12.524;2022-11-06T02:31:29;6.40;;;4.20;;
21862;SDS011;11096;51.338;12.524;2022-11-06T02:34:05;10.43;;;4.65;;
21862;SDS011;11096;51.338;12.524;2022-11-06T02:36:37;7.13;;;4.38;;
21862;SDS011;11096;51.338;12.524;2022-11-06T02:39:09;11.80;;;4.20;;
21862;SDS011;11096;51.338;12.524;2022-11-06T02:41:39;8.52;;;4.75;;
21862;SDS011;11096;51.338;12.524;2022-11-06T02:44:10;8.38;;;4.18;;
21862;SDS011;11096;51.338;12.524;2022-11-06T02:46:42;7.53;;;4.63;;
21862;SDS011;11096;51.338;12.524;2022-11-06T02:49:35;12.13;;;4.75;;
21862;SDS011;11096;51.338;12.524;2022-11-06T02:52:07;12.32;;;4.38;;
21862;SDS011;11096;51.338;12.524;2022-11-06T02:54:38;8.27;;;4.82;;
21862;SDS011;11096;51.338;12.524;2022-11-06T02:57:07;7.35;;;4.80;;
21862;SDS011;11096;51.338;12.524;2022-11-06T02:59:42;10.57;;;5.68;;
21862;SDS011;11096;51.338;12.524;2022-11-06T03:02:14;9.95;;;5.47;;
21862;SDS011;11096;51.338;12.524;2022-11-06T03:04:50;12.15;;;5.75;;
21862;SDS011;11096;51.338;12.524;2022-11-06T03:07:33;14.93;;;5.32;;
21862;SDS011;11096;51.338;12.524;2022-11-06T03:10:03;10.00;;;5.78;;
21862;SDS011;11096;51.338;12.524;2022-11-06T03:12:31;14.98;;;5.95;;
21862;SDS011;11096;51.338;12.524;2022-11-06T03:20:21;10.93;;;5.90;;
21862;SDS011;11096;51.338;12.524;2022-11-06T03:26:00;12.13;;;6.00;;
21862;SDS011;11096;51.338;12.524;2022-11-06T03:28:34;11.40;;;6.07;;
21862;SDS011;11096;51.338;12.524;2022-11-06T03:31:05;15.80;;;6.53;;
21862;SDS011;11096;51.338;12.524;2022-11-06T03:36:22;14.25;;;6.15;;
21862;SDS011;11096;51.338;12.524;2022-11-06T03:38:57;12.63;;;6.03;;
21862;SDS011;11096;51.338;12.524;2022-11-06T03:41:30;15.35;;;7.10;;
21862;SDS011;11096;51.338;12.524;2022-11-06T03:44:02;15.45;;;6.20;;
21862;SDS011;11096;51.338;12.524;2022-11-06T03:46:30;11.73;;;6.30;;
21862;SDS011;11096;51.338;12.524;2022-11-06T03:49:02;11.82;;;6.43;;
21862;SDS011;11096;51.338;12.524;2022-11-06T03:51:33;15.00;;;6.30;;
21862;SDS011;11096;51.338;12.524;2022-11-06T03:54:03;11.35;;;6.50;;
21862;SDS011;11096;51.338;12.524;2022-11-06T03:56:36;11.25;;;6.00;;
21862;SDS011;11096;51.338;12.524;2022-11-06T03:59:06;11.90;;;6.43;;
21862;SDS011;11096;51.338;12.524;2022-11-06T04:01:34;11.23;;;6.32;;
21862;SDS011;11096;51.338;12.524;2022-11-06T04:09:00;15.52;;;7.45;;
21862;SDS011;11096;51.338;12.524;2022-11-06T04:11:48;17.58;;;7.18;;
21862;SDS011;11096;51.338;12.524;2022-11-06T04:14:34;14.25;;;7.63;;
21862;SDS011;11096;51.338;12.524;2022-11-06T04:17:03;14.38;;;6.78;;
21862;SDS011;11096;51.338;12.524;2022-11-06T04:19:33;13.52;;;6.97;;
21862;SDS011;11096;51.338;12.524;2022-11-06T04:27:37;14.15;;;7.25;;
21862;SDS011;11096;51.338;12.524;2022-11-06T04:30:13;16.27;;;6.63;;
21862;SDS011;11096;51.338;12.524;2022-11-06T04:32:48;12.95;;;6.00;;
21862;SDS011;11096;51.338;12.524;2022-11-06T04:45:54;15.55;;;7.40;;
21862;SDS011;11096;51.338;12.524;2022-11-06T04:48:23;17.13;;;7.82;;
21862;SDS011;11096;51.338;12.524;2022-11-06T04:53:18;12.85;;;7.10;;
21862;SDS011;11096;51.338;12.524;2022-11-06T04:55:51;14.90;;;7.45;;
21862;SDS011;11096;51.338;12.524;2022-11-06T04:58:18;13.75;;;6.95;;
21862;SDS011;11096;51.338;12.524;2022-11-06T05:00:46;14.57;;;7.13;;
21862;SDS011;11096;51.338;12.524;2022-11-06T05:03:13;14.50;;;7.47;;
21862;SDS011;11096;51.338;12.524;2022-11-06T05:05:39;13.65;;;7.15;;
21862;SDS011;11096;51.338;12.524;2022-11-06T05:08:05;15.13;;;6.93;;
21862;SDS011;11096;51.338;12.524;2022-11-06T05:10:31;20.58;;;7.90;;
21862;SDS011;11096;51.338;12.524;2022-11-06T05:12:56;12.20;;;5.90;;
21862;SDS011;11096;51.338;12.524;2022-11-06T05:15:21;15.32;;;7.65;;
21862;SDS011;11096;51.338;12.524;2022-11-06T05:17:47;13.00;;;6.97;;
21862;SDS011;11096;51.338;12.524;2022-11-06T05:20:12;11.77;;;6.90;;
21862;SDS011;11096;51.338;12.524;2022-11-06T05:22:41;15.57;;;6.68;;
21862;SDS011;11096;51.338;12.524;2022-11-06T05:25:21;13.45;;;7.50;;
21862;SDS011;11096;51.338;12.524;2022-11-06T05:27:47;14.43;;;6.95;;
21862;SDS011;11096;51.338;12.524;2022-11-06T05:30:13;15.02;;;7.05;;
21862;SDS011;11096;51.338;12.524;2022-11-06T05:32:38;15.70;;;7.32;;
21862;SDS011;11096;51.338;12.524;2022-11-06T05:35:03;13.07;;;6.97;;
21862;SDS011;11096;51.338;12.524;2022-11-06T05:37:29;14.43;;;7.45;;
21862;SDS011;11096;51.338;12.524;2022-11-06T05:39:54;16.25;;;7.78;;
21862;SDS011;11096;51.338;12.524;2022-11-06T05:42:20;11.48;;;6.72;;
21862;SDS011;11096;51.338;12.524;2022-11-06T05:44:45;11.15;;;6.30;;
21862;SDS011;11096;51.338;12.524;2022-11-06T05:47:10;15.82;;;7.18;;
21862;SDS011;11096;51.338;12.524;2022-11-06T05:49:36;14.15;;;6.53;;
21862;SDS011;11096;51.338;12.524;2022-11-06T05:52:01;14.45;;;7.35;;
21862;SDS011;11096;51.338;12.524;2022-11-06T05:54:26;13.02;;;6.70;;
21862;SDS011;11096;51.338;12.524;2022-11-06T05:56:52;14.05;;;6.15;;
21862;SDS011;11096;51.338;12.524;2022-11-06T05:59:17;14.25;;;7.38;;
21862;SDS011;11096;51.338;12.524;2022-11-06T06:01:43;13.18;;;6.75;;
21862;SDS011;11096;51.338;12.524;2022-11-06T06:04:08;12.07;;;6.43;;
21862;SDS011;11096;51.338;12.524;2022-11-06T06:06:33;16.27;;;7.40;;
21862;SDS011;11096;51.338;12.524;2022-11-06T06:08:59;15.25;;;7.15;;
21862;SDS011;11096;51.338;12.524;2022-11-06T06:11:24;18.27;;;7.03;;
21862;SDS011;11096;51.338;12.524;2022-11-06T06:13:50;17.55;;;7.70;;
21862;SDS011;11096;51.338;12.524;2022-11-06T06:16:15;13.52;;;6.85;;
21862;SDS011;11096;51.338;12.524;2022-11-06T06:18:40;14.73;;;6.95;;
21862;SDS011;11096;51.338;12.524;2022-11-06T06:21:06;13.23;;;7.10;;
21862;SDS011;11096;51.338;12.524;2022-11-06T06:23:31;15.00;;;7.10;;
21862;SDS011;11096;51.338;12.524;2022-11-06T06:25:56;12.23;;;6.80;;
21862;SDS011;11096;51.338;12.524;2022-11-06T06:28:22;15.40;;;6.75;;
21862;SDS011;11096;51.338;12.524;2022-11-06T06:30:47;13.98;;;6.97;;
21862;SDS011;11096;51.338;12.524;2022-11-06T06:33:12;12.45;;;6.78;;
21862;SDS011;11096;51.338;12.524;2022-11-06T06:35:38;16.42;;;8.00;;
21862;SDS011;11096;51.338;12.524;2022-11-06T06:38:03;14.90;;;6.80;;
21862;SDS011;11096;51.338;12.524;2022-11-06T06:40:29;11.75;;;6.90;;
21862;SDS011;11096;51.338;12.524;2022-11-06T06:42:55;12.57;;;6.18;;
21862;SDS011;11096;51.338;12.524;2022-11-06T06:45:21;15.07;;;7.15;;
21862;SDS011;11096;51.338;12.524;2022-11-06T06:47:46;13.20;;;7.20;;
21862;SDS011;11096;51.338;12.524;2022-11-06T06:50:12;13.57;;;7.00;;
21862;SDS011;11096;51.338;12.524;2022-11-06T06:52:37;14.32;;;6.72;;
21862;SDS011;11096;51.338;12.524;2022-11-06T06:55:03;15.75;;;7.10;;
21862;SDS011;11096;51.338;12.524;2022-11-06T06:57:29;14.77;;;7.00;;
21862;SDS011;11096;51.338;12.524;2022-11-06T06:59:54;12.18;;;6.65;;
21862;SDS011;11096;51.338;12.524;2022-11-06T07:02:19;17.77;;;7.13;;
21862;SDS011;11096;51.338;12.524;2022-11-06T07:04:45;14.65;;;7.88;;
21862;SDS011;11096;51.338;12.524;2022-11-06T07:07:10;15.30;;;7.57;;
21862;SDS011;11096;51.338;12.524;2022-11-06T07:09:35;15.32;;;7.47;;
21862;SDS011;11096;51.338;12.524;2022-11-06T07:12:01;15.80;;;8.05;;
21862;SDS011;11096;51.338;12.524;2022-11-06T07:14:26;15.02;;;7.95;;
21862;SDS011;11096;51.338;12.524;2022-11-06T07:16:52;18.42;;;8.23;;
21862;SDS011;11096;51.338;12.524;2022-11-06T07:19:18;12.82;;;7.30;;
21862;SDS011;11096;51.338;12.524;2022-11-06T07:21:43;18.88;;;8.82;;
21862;SDS011;11096;51.338;12.524;2022-11-06T07:24:09;13.68;;;8.10;;
21862;SDS011;11096;51.338;12.524;2022-11-06T07:26:34;11.95;;;7.13;;
21862;SDS011;11096;51.338;12.524;2022-11-06T07:29:00;16.95;;;8.13;;
21862;SDS011;11096;51.338;12.524;2022-11-06T07:31:25;16.33;;;6.97;;
21862;SDS011;11096;51.338;12.524;2022-11-06T07:33:50;15.85;;;7.28;;
21862;SDS011;11096;51.338;12.524;2022-11-06T07:36:16;12.68;;;7.05;;
21862;SDS011;11096;51.338;12.524;2022-11-06T07:38:41;14.05;;;7.53;;
21862;SDS011;11096;51.338;12.524;2022-11-06T07:41:08;16.13;;;7.70;;
21862;SDS011;11096;51.338;12.524;2022-11-06T07:43:35;14.15;;;6.82;;
21862;SDS011;11096;51.338;12.524;2022-11-06T07:46:02;14.38;;;7.75;;
21862;SDS011;11096;51.338;12.524;2022-11-06T07:48:29;14.20;;;7.88;;
21862;SDS011;11096;51.338;12.524;2022-11-06T07:50:55;17.45;;;7.28;;
21862;SDS011;11096;51.338;12.524;2022-11-06T07:53:21;14.93;;;6.90;;
21862;SDS011;11096;51.338;12.524;2022-11-06T07:55:51;12.75;;;6.75;;
21862;SDS011;11096;51.338;12.524;2022-11-06T07:58:18;13.23;;;7.03;;
21862;SDS011;11096;51.338;12.524;2022-11-06T08:00:47;12.95;;;6.82;;
21862;SDS011;11096;51.338;12.524;2022-11-06T08:03:20;12.93;;;6.68;;
21862;SDS011;11096;51.338;12.524;2022-11-06T08:05:46;10.63;;;5.97;;
21862;SDS011;11096;51.338;12.524;2022-11-06T08:08:11;10.15;;;6.10;;
21862;SDS011;11096;51.338;12.524;2022-11-06T08:10:37;11.02;;;6.15;;
21862;SDS011;11096;51.338;12.524;2022-11-06T08:13:10;10.32;;;6.32;;
21862;SDS011;11096;51.338;12.524;2022-11-06T08:15:37;11.90;;;5.97;;
21862;SDS011;11096;51.338;12.524;2022-11-06T08:18:03;12.95;;;6.22;;
21862;SDS011;11096;51.338;12.524;2022-11-06T08:20:29;10.68;;;5.93;;
21862;SDS011;11096;51.338;12.524;2022-11-06T08:23:01;8.88;;;5.43;;
21862;SDS011;11096;51.338;12.524;2022-11-06T08:25:28;9.82;;;5.90;;
21862;SDS011;11096;51.338;12.524;2022-11-06T08:27:55;8.73;;;5.57;;
21862;SDS011;11096;51.338;12.524;2022-11-06T08:30:21;8.73;;;5.38;;
21862;SDS011;11096;51.338;12.524;2022-11-06T08:32:47;7.88;;;5.78;;
21862;SDS011;11096;51.338;12.524;2022-11-06T08:35:12;10.80;;;5.72;;
21862;SDS011;11096;51.338;12.524;2022-11-06T08:37:37;11.07;;;5.65;;
21862;SDS011;11096;51.338;12.524;2022-11-06T08:40:03;9.90;;;5.90;;
21862;SDS011;11096;51.338;12.524;2022-11-06T08:42:28;9.75;;;4.88;;
21862;SDS011;11096;51.338;12.524;2022-11-06T08:44:54;8.32;;;5.18;;
21862;SDS011;11096;51.338;12.524;2022-11-06T08:47:19;7.90;;;4.65;;
21862;SDS011;11096;51.338;12.524;2022-11-06T08:49:44;8.95;;;5.07;;
21862;SDS011;11096;51.338;12.524;2022-11-06T08:52:10;8.75;;;5.38;;
21862;SDS011;11096;51.338;12.524;2022-11-06T08:54:35;7.97;;;5.32;;
21862;SDS011;11096;51.338;12.524;2022-11-06T08:57:00;7.82;;;4.75;;
21862;SDS011;11096;51.338;12.524;2022-11-06T08:59:26;9.23;;;5.15;;
21862;SDS011;11096;51.338;12.524;2022-11-06T09:01:51;7.72;;;4.78;;
21862;SDS011;11096;51.338;12.524;2022-11-06T09:04:17;6.53;;;4.38;;
21862;SDS011;11096;51.338;12.524;2022-11-06T09:06:43;8.93;;;4.53;;
21862;SDS011;11096;51.338;12.524;2022-11-06T09:09:08;11.07;;;5.20;;
21862;SDS011;11096;51.338;12.524;2022-11-06T09:11:33;7.63;;;4.57;;
21862;SDS011;11096;51.338;12.524;2022-11-06T09:13:59;6.80;;;4.32;;
21862;SDS011;11096;51.338;12.524;2022-11-06T09:16:24;8.20;;;4.72;;
21862;SDS011;11096;51.338;12.524;2022-11-06T09:18:52;9.15;;;4.45;;
21862;SDS011;11096;51.338;12.524;2022-11-06T09:21:19;8.13;;;3.85;;
21862;SDS011;11096;51.338;12.524;2022-11-06T09:23:44;6.43;;;3.92;;
21862;SDS011;11096;51.338;12.524;2022-11-06T09:26:12;6.85;;;4.10;;
21862;SDS011;11096;51.338;12.524;2022-11-06T09:28:38;5.45;;;3.50;;
21862;SDS011;11096;51.338;12.524;2022-11-06T09:31:03;7.10;;;3.60;;
21862;SDS011;11096;51.338;12.524;2022-11-06T09:33:29;7.53;;;4.40;;
21862;SDS011;11096;51.338;12.524;2022-11-06T09:35:54;5.47;;;4.07;;
21862;SDS011;11096;51.338;12.524;2022-11-06T09:38:19;6.57;;;3.47;;
21862;SDS011;11096;51.338;12.524;2022-11-06T09:40:46;5.43;;;3.60;;
21862;SDS011;11096;51.338;12.524;2022-11-06T09:43:24;6.18;;;3.20;;
21862;SDS011;11096;51.338;12.524;2022-11-06T09:45:51;5.40;;;2.83;;
21862;SDS011;11096;51.338;12.524;2022-11-06T09:56:03;5.30;;;3.35;;
21862;SDS011;11096;51.338;12.524;2022-11-06T09:58:32;3.30;;;2.83;;
21862;SDS011;11096;51.338;12.524;2022-11-06T10:03:55;5.57;;;3.03;;
21862;SDS011;11096;51.338;12.524;2022-11-06T10:06:23;4.95;;;2.85;;
21862;SDS011;11096;51.338;12.524;2022-11-06T10:08:49;4.95;;;3.30;;
21862;SDS011;11096;51.338;12.524;2022-11-06T10:13:49;4.35;;;2.88;;
21862;SDS011;11096;51.338;12.524;2022-11-06T10:18:55;3.95;;;2.88;;
21862;SDS011;11096;51.338;12.524;2022-11-06T10:21:41;3.40;;;2.80;;
21862;SDS011;11096;51.338;12.524;2022-11-06T10:24:14;8.52;;;3.38;;
21862;SDS011;11096;51.338;12.524;2022-11-06T10:26:48;6.28;;;2.40;;
21862;SDS011;11096;51.338;12.524;2022-11-06T10:29:37;4.40;;;2.80;;
21862;SDS011;11096;51.338;12.524;2022-11-06T10:34:59;3.67;;;2.05;;
21862;SDS011;11096;51.338;12.524;2022-11-06T10:37:41;3.70;;;2.10;;
21862;SDS011;11096;51.338;12.524;2022-11-06T10:40:18;4.05;;;2.42;;
21862;SDS011;11096;51.338;12.524;2022-11-06T10:42:54;4.53;;;2.40;;
21862;SDS011;11096;51.338;12.524;2022-11-06T10:45:24;4.22;;;2.25;;
21862;SDS011;11096;51.338;12.524;2022-11-06T10:47:58;3.78;;;2.55;;
21862;SDS011;11096;51.338;12.524;2022-11-06T10:50:38;4.43;;;2.58;;
21862;SDS011;11096;51.338;12.524;2022-11-06T10:53:19;2.95;;;1.77;;
21862;SDS011;11096;51.338;12.524;2022-11-06T10:56:13;3.40;;;1.90;;
21862;SDS011;11096;51.338;12.524;2022-11-06T10:58:56;2.13;;;1.85;;
21862;SDS011;11096;51.338;12.524;2022-11-06T11:01:21;4.53;;;2.30;;
21862;SDS011;11096;51.338;12.524;2022-11-06T11:03:47;4.50;;;1.95;;
21862;SDS011;11096;51.338;12.524;2022-11-06T11:06:14;2.63;;;2.00;;
21862;SDS011;11096;51.338;12.524;2022-11-06T11:08:41;3.22;;;2.20;;
21862;SDS011;11096;51.338;12.524;2022-11-06T11:13:44;4.38;;;2.17;;
21862;SDS011;11096;51.338;12.524;2022-11-06T11:16:28;3.47;;;1.80;;
21862;SDS011;11096;51.338;12.524;2022-11-06T11:22:18;3.22;;;1.85;;
21862;SDS011;11096;51.338;12.524;2022-11-06T11:25:01;4.65;;;1.73;;
21862;SDS011;11096;51.338;12.524;2022-11-06T11:27:34;5.32;;;2.22;;
21862;SDS011;11096;51.338;12.524;2022-11-06T11:30:03;2.58;;;2.30;;
21862;SDS011;11096;51.338;12.524;2022-11-06T11:32:29;3.58;;;1.90;;
21862;SDS011;11096;51.338;12.524;2022-11-06T11:34:55;5.03;;;1.88;;
21862;SDS011;11096;51.338;12.524;2022-11-06T11:39:46;2.92;;;1.75;;
21862;SDS011;11096;51.338;12.524;2022-11-06T11:42:27;4.72;;;1.80;;
21862;SDS011;11096;51.338;12.524;2022-11-06T11:47:43;4.70;;;1.90;;
21862;SDS011;11096;51.338;12.524;2022-11-06T11:53:04;2.95;;;1.55;;
21862;SDS011;11096;51.338;12.524;2022-11-06T11:55:36;2.97;;;1.83;;
21862;SDS011;11096;51.338;12.524;2022-11-06T11:58:14;4.70;;;1.90;;
21862;SDS011;11096;51.338;12.524;2022-11-06T12:00:50;2.17;;;1.92;;
21862;SDS011;11096;51.338;12.524;2022-11-06T12:03:19;4.47;;;1.75;;
21862;SDS011;11096;51.338;12.524;2022-11-06T12:05:48;3.42;;;2.20;;
21862;SDS011;11096;51.338;12.524;2022-11-06T12:08:21;2.33;;;1.73;;
21862;SDS011;11096;51.338;12.524;2022-11-06T12:10:48;2.08;;;1.63;;
21862;SDS011;11096;51.338;12.524;2022-11-06T12:13:23;3.33;;;1.75;;
21862;SDS011;11096;51.338;12.524;2022-11-06T12:18:44;2.03;;;1.75;;
21862;SDS011;11096;51.338;12.524;2022-11-06T12:21:19;6.70;;;2.17;;
21862;SDS011;11096;51.338;12.524;2022-11-06T12:24:02;3.63;;;2.10;;
21862;SDS011;11096;51.338;12.524;2022-11-06T12:26:38;4.88;;;2.05;;
21862;SDS011;11096;51.338;12.524;2022-11-06T12:34:47;2.13;;;1.83;;
21862;SDS011;11096;51.338;12.524;2022-11-06T12:37:33;2.97;;;2.00;;
21862;SDS011;11096;51.338;12.524;2022-11-06T12:40:20;2.83;;;1.75;;
21862;SDS011;11096;51.338;12.524;2022-11-06T12:45:53;2.53;;;2.05;;
21862;SDS011;11096;51.338;12.524;2022-11-06T12:51:22;3.17;;;1.75;;
21862;SDS011;11096;51.338;12.524;2022-11-06T12:56:50;3.03;;;1.90;;
21862;SDS011;11096;51.338;12.524;2022-11-06T13:05:33;4.93;;;2.17;;
21862;SDS011;11096;51.338;12.524;2022-11-06T13:19:23;4.60;;;2.13;;
21862;SDS011;11096;51.338;12.524;2022-11-06T13:22:13;3.42;;;1.95;;
21862;SDS011;11096;51.338;12.524;2022-11-06T13:24:57;6.45;;;2.67;;
21862;SDS011;11096;51.338;12.524;2022-11-06T13:30:16;4.25;;;2.00;;
21862;SDS011;11096;51.338;12.524;2022-11-06T13:32:44;3.13;;;1.95;;
21862;SDS011;11096;51.338;12.524;2022-11-06T13:35:14;3.08;;;2.33;;
21862;SDS011;11096;51.338;12.524;2022-11-06T13:37:44;3.25;;;1.85;;
21862;SDS011;11096;51.338;12.524;2022-11-06T13:40:19;4.25;;;2.00;;
21862;SDS011;11096;51.338;12.524;2022-11-06T13:42:54;3.55;;;2.17;;
21862;SDS011;11096;51.338;12.524;2022-11-06T13:45:26;3.13;;;2.35;;
21862;SDS011;11096;51.338;12.524;2022-11-06T13:50:34;3.55;;;1.98;;
21862;SDS011;11096;51.338;12.524;2022-11-06T13:58:57;5.35;;;2.58;;
21862;SDS011;11096;51.338;12.524;2022-11-06T14:01:40;3.45;;;2.40;;
21862;SDS011;11096;51.338;12.524;2022-11-06T14:04:28;3.50;;;2.63;;
21862;SDS011;11096;51.338;12.524;2022-11-06T14:07:25;5.28;;;2.30;;
21862;SDS011;11096;51.338;12.524;2022-11-06T14:09:53;3.30;;;2.38;;
21862;SDS011;11096;51.338;12.524;2022-11-06T14:12:20;4.55;;;2.65;;
21862;SDS011;11096;51.338;12.524;2022-11-06T14:14:47;4.22;;;2.50;;
21862;SDS011;11096;51.338;12.524;2022-11-06T14:22:24;3.47;;;2.60;;
21862;SDS011;11096;51.338;12.524;2022-11-06T14:24:52;3.35;;;2.53;;
21862;SDS011;11096;51.338;12.524;2022-11-06T14:29:56;6.97;;;3.05;;
21862;SDS011;11096;51.338;12.524;2022-11-06T14:34:47;8.35;;;2.83;;
21862;SDS011;11096;51.338;12.524;2022-11-06T14:42:15;6.00;;;3.13;;
21862;SDS011;11096;51.338;12.524;2022-11-06T14:44:51;3.67;;;2.80;;
21862;SDS011;11096;51.338;12.524;2022-11-06T14:47:23;6.05;;;3.20;;
21862;SDS011;11096;51.338;12.524;2022-11-06T14:49:50;6.00;;;3.00;;
21862;SDS011;11096;51.338;12.524;2022-11-06T14:52:17;4.63;;;3.10;;
21862;SDS011;11096;51.338;12.524;2022-11-06T14:55:00;3.50;;;2.70;;
21862;SDS011;11096;51.338;12.524;2022-11-06T14:57:48;4.43;;;2.42;;
21862;SDS011;11096;51.338;12.524;2022-11-06T15:02:59;3.33;;;2.67;;
21862;SDS011;11096;51.338;12.524;2022-11-06T15:05:28;3.33;;;2.33;;
21862;SDS011;11096;51.338;12.524;2022-11-06T15:07:57;4.95;;;2.30;;
21862;SDS011;11096;51.338;12.524;2022-11-06T15:15:41;2.65;;;2.33;;
21862;SDS011;11096;51.338;12.524;2022-11-06T15:18:10;3.60;;;2.47;;
21862;SDS011;11096;51.338;12.524;2022-11-06T15:20:38;3.53;;;2.65;;
21862;SDS011;11096;51.338;12.524;2022-11-06T15:23:18;4.20;;;2.80;;
21862;SDS011;11096;51.338;12.524;2022-11-06T15:25:53;4.80;;;3.15;;
21862;SDS011;11096;51.338;12.524;2022-11-06T15:28:25;5.70;;;3.15;;
21862;SDS011;11096;51.338;12.524;2022-11-06T15:31:00;4.55;;;3.03;;
21862;SDS011;11096;51.338;12.524;2022-11-06T15:36:02;8.75;;;3.40;;
21862;SDS011;11096;51.338;12.524;2022-11-06T15:38:40;5.93;;;3.17;;
21862;SDS011;11096;51.338;12.524;2022-11-06T15:41:10;5.45;;;2.80;;
21862;SDS011;11096;51.338;12.524;2022-11-06T15:43:39;4.38;;;3.17;;
21862;SDS011;11096;51.338;12.524;2022-11-06T15:46:19;6.63;;;3.30;;
21862;SDS011;11096;51.338;12.524;2022-11-06T15:51:48;5.53;;;3.40;;
21862;SDS011;11096;51.338;12.524;2022-11-06T15:59:41;5.70;;;3.53;;
21862;SDS011;11096;51.338;12.524;2022-11-06T16:02:17;5.20;;;3.90;;
21862;SDS011;11096;51.338;12.524;2022-11-06T16:04:44;7.45;;;4.28;;
21862;SDS011;11096;51.338;12.524;2022-11-06T16:07:11;6.30;;;3.33;;
21862;SDS011;11096;51.338;12.524;2022-11-06T16:09:39;4.18;;;3.50;;
21862;SDS011;11096;51.338;12.524;2022-11-06T16:12:06;9.15;;;5.03;;
21862;SDS011;11096;51.338;12.524;2022-11-06T16:14:39;9.85;;;6.05;;
21862;SDS011;11096;51.338;12.524;2022-11-06T16:17:15;9.52;;;5.30;;
21862;SDS011;11096;51.338;12.524;2022-11-06T16:19:46;5.57;;;3.85;;
21862;SDS011;11096;51.338;12.524;2022-11-06T16:22:18;5.75;;;3.67;;
21862;SDS011;11096;51.338;12.524;2022-11-06T16:24:52;4.68;;;3.33;;
21862;SDS011;11096;51.338;12.524;2022-11-06T16:27:20;7.60;;;3.25;;
21862;SDS011;11096;51.338;12.524;2022-11-06T16:29:48;4.55;;;3.55;;
21862;SDS011;11096;51.338;12.524;2022-11-06T16:32:24;5.68;;;3.97;;
21862;SDS011;11096;51.338;12.524;2022-11-06T16:34:52;6.93;;;3.67;;
21862;SDS011;11096;51.338;12.524;2022-11-06T16:39:48;5.75;;;3.70;;
21862;SDS011;11096;51.338;12.524;2022-11-06T16:42:23;7.07;;;4.25;;
21862;SDS011;11096;51.338;12.524;2022-11-06T16:47:42;5.68;;;3.55;;
21862;SDS011;11096;51.338;12.524;2022-11-06T16:56:31;7.72;;;4.30;;
21862;SDS011;11096;51.338;12.524;2022-11-06T16:59:02;8.20;;;3.72;;
21862;SDS011;11096;51.338;12.524;2022-11-06T17:01:40;6.88;;;3.88;;
21862;SDS011;11096;51.338;12.524;2022-11-06T17:04:27;7.32;;;3.88;;
21862;SDS011;11096;51.338;12.524;2022-11-06T17:06:56;5.40;;;3.67;;
21862;SDS011;11096;51.338;12.524;2022-11-06T17:09:26;6.35;;;4.30;;
21862;SDS011;11096;51.338;12.524;2022-11-06T17:11:57;7.72;;;3.92;;
21862;SDS011;11096;51.338;12.524;2022-11-06T17:14:24;6.32;;;3.65;;
21862;SDS011;11096;51.338;12.524;2022-11-06T17:19:17;5.57;;;3.40;;
21862;SDS011;11096;51.338;12.524;2022-11-06T17:21:44;5.50;;;3.42;;
21862;SDS011;11096;51.338;12.524;2022-11-06T17:24:10;6.82;;;3.63;;
21862;SDS011;11096;51.338;12.524;2022-11-06T17:26:36;5.82;;;3.72;;
21862;SDS011;11096;51.338;12.524;2022-11-06T17:29:08;6.90;;;4.07;;